sensor_id;sensor_type;location;lat;lon;timestamp;P1;durP1;ratioP1;P2;durP2;ratioP2
16593;SDS011;8410;52.532;13.336;2022-08-21T00:00:34;11.90;;;10.15;;
16593;SDS011;8410;52.532;13.336;2022-08-21T00:03:09;8.85;;;8.05;;
16593;SDS011;8410;52.532;13.336;2022-08-21T00:05:40;9.43;;;8.50;;
16593;SDS011;8410;52.532;13.336;2022-08-21T00:08:12;8.82;;;7.93;;
16593;SDS011;8410;52.532;13.336;2022-08-21T00:10:41;11.15;;;9.85;;
16593;SDS011;8410;52.532;13.336;2022-08-21T00:13:11;8.00;;;6.78;;
16593;SDS011;8410;52.532;13.336;2022-08-21T00:15:44;8.30;;;7.50;;
16593;SDS011;8410;52.532;13.336;2022-08-21T00:18:12;8.48;;;7.40;;
16593;SDS011;8410;52.532;13.336;2022-08-21T00:20:43;7.95;;;6.93;;
16593;SDS011;8410;52.532;13.336;2022-08-21T00:23:12;11.32;;;7.22;;
16593;SDS011;8410;52.532;13.336;2022-08-21T00:25:42;8.05;;;7.30;;
16593;SDS011;8410;52.532;13.336;2022-08-21T00:28:11;8.05;;;7.18;;
16593;SDS011;8410;52.532;13.336;2022-08-21T00:30:40;8.23;;;7.43;;
16593;SDS011;8410;52.532;13.336;2022-08-21T00:33:10;7.78;;;7.07;;
16593;SDS011;8410;52.532;13.336;2022-08-21T00:35:41;9.90;;;8.30;;
16593;SDS011;8410;52.532;13.336;2022-08-21T00:38:11;9.70;;;7.15;;
16593;SDS011;8410;52.532;13.336;2022-08-21T00:40:41;9.27;;;8.40;;
16593;SDS011;8410;52.532;13.336;2022-08-21T00:43:13;8.52;;;7.72;;
16593;SDS011;8410;52.532;13.336;2022-08-21T00:45:44;8.50;;;7.70;;
16593;SDS011;8410;52.532;13.336;2022-08-21T00:48:13;9.40;;;8.13;;
16593;SDS011;8410;52.532;13.336;2022-08-21T00:50:44;9.98;;;9.05;;
16593;SDS011;8410;52.532;13.336;2022-08-21T00:53:20;8.90;;;7.97;;
16593;SDS011;8410;52.532;13.336;2022-08-21T00:55:50;10.10;;;9.18;;
16593;SDS011;8410;52.532;13.336;2022-08-21T00:58:21;10.93;;;9.85;;
16593;SDS011;8410;52.532;13.336;2022-08-21T01:00:51;10.68;;;9.73;;
16593;SDS011;8410;52.532;13.336;2022-08-21T01:03:21;10.15;;;9.20;;
16593;SDS011;8410;52.532;13.336;2022-08-21T01:05:53;11.32;;;10.13;;
16593;SDS011;8410;52.532;13.336;2022-08-21T01:08:22;10.35;;;9.10;;
16593;SDS011;8410;52.532;13.336;2022-08-21T01:10:51;11.30;;;10.10;;
16593;SDS011;8410;52.532;13.336;2022-08-21T01:13:22;11.00;;;10.00;;
16593;SDS011;8410;52.532;13.336;2022-08-21T01:15:52;11.10;;;9.98;;
16593;SDS011;8410;52.532;13.336;2022-08-21T01:18:23;11.63;;;10.50;;
16593;SDS011;8410;52.532;13.336;2022-08-21T01:21:01;13.30;;;11.80;;
16593;SDS011;8410;52.532;13.336;2022-08-21T01:23:33;11.38;;;10.18;;
16593;SDS011;8410;52.532;13.336;2022-08-21T01:26:04;12.73;;;10.45;;
16593;SDS011;8410;52.532;13.336;2022-08-21T01:28:34;13.25;;;11.93;;
16593;SDS011;8410;52.532;13.336;2022-08-21T01:31:10;11.30;;;10.10;;
16593;SDS011;8410;52.532;13.336;2022-08-21T01:33:51;9.38;;;8.45;;
16593;SDS011;8410;52.532;13.336;2022-08-21T01:36:23;8.88;;;8.02;;
16593;SDS011;8410;52.532;13.336;2022-08-21T01:38:52;9.70;;;7.95;;
16593;SDS011;8410;52.532;13.336;2022-08-21T01:41:20;9.23;;;8.10;;
16593;SDS011;8410;52.532;13.336;2022-08-21T01:43:49;9.93;;;8.05;;
16593;SDS011;8410;52.532;13.336;2022-08-21T01:46:17;7.97;;;6.83;;
16593;SDS011;8410;52.532;13.336;2022-08-21T01:48:45;7.18;;;6.50;;
16593;SDS011;8410;52.532;13.336;2022-08-21T01:51:13;8.35;;;6.57;;
16593;SDS011;8410;52.532;13.336;2022-08-21T01:53:42;7.35;;;5.63;;
16593;SDS011;8410;52.532;13.336;2022-08-21T01:56:11;8.10;;;4.95;;
16593;SDS011;8410;52.532;13.336;2022-08-21T01:58:43;7.55;;;5.45;;
16593;SDS011;8410;52.532;13.336;2022-08-21T02:01:13;7.55;;;5.53;;
16593;SDS011;8410;52.532;13.336;2022-08-21T02:03:42;6.15;;;5.25;;
16593;SDS011;8410;52.532;13.336;2022-08-21T02:06:12;5.88;;;4.35;;
16593;SDS011;8410;52.532;13.336;2022-08-21T02:08:45;8.90;;;4.95;;
16593;SDS011;8410;52.532;13.336;2022-08-21T02:11:14;6.50;;;4.55;;
16593;SDS011;8410;52.532;13.336;2022-08-21T02:13:42;5.88;;;4.22;;
16593;SDS011;8410;52.532;13.336;2022-08-21T02:16:10;7.45;;;4.68;;
16593;SDS011;8410;52.532;13.336;2022-08-21T02:18:44;7.65;;;4.35;;
16593;SDS011;8410;52.532;13.336;2022-08-21T02:21:13;6.35;;;4.68;;
16593;SDS011;8410;52.532;13.336;2022-08-21T02:23:41;5.28;;;4.15;;
16593;SDS011;8410;52.532;13.336;2022-08-21T02:26:11;8.75;;;5.18;;
16593;SDS011;8410;52.532;13.336;2022-08-21T02:28:39;6.35;;;5.03;;
16593;SDS011;8410;52.532;13.336;2022-08-21T02:31:08;7.90;;;6.75;;
16593;SDS011;8410;52.532;13.336;2022-08-21T02:33:37;7.63;;;5.03;;
16593;SDS011;8410;52.532;13.336;2022-08-21T02:36:05;9.20;;;5.25;;
16593;SDS011;8410;52.532;13.336;2022-08-21T02:38:36;8.55;;;4.82;;
16593;SDS011;8410;52.532;13.336;2022-08-21T02:41:08;6.72;;;5.05;;
16593;SDS011;8410;52.532;13.336;2022-08-21T02:43:41;5.57;;;4.63;;
16593;SDS011;8410;52.532;13.336;2022-08-21T02:46:10;6.55;;;5.28;;
16593;SDS011;8410;52.532;13.336;2022-08-21T02:48:41;6.20;;;4.88;;
16593;SDS011;8410;52.532;13.336;2022-08-21T02:51:10;7.28;;;4.97;;
16593;SDS011;8410;52.532;13.336;2022-08-21T02:53:41;6.78;;;4.65;;
16593;SDS011;8410;52.532;13.336;2022-08-21T02:56:11;9.25;;;4.78;;
16593;SDS011;8410;52.532;13.336;2022-08-21T02:58:45;5.93;;;4.00;;
16593;SDS011;8410;52.532;13.336;2022-08-21T03:01:17;8.20;;;4.65;;
16593;SDS011;8410;52.532;13.336;2022-08-21T03:03:46;7.18;;;4.78;;
16593;SDS011;8410;52.532;13.336;2022-08-21T03:06:17;5.70;;;4.45;;
16593;SDS011;8410;52.532;13.336;2022-08-21T03:08:47;6.72;;;4.78;;
16593;SDS011;8410;52.532;13.336;2022-08-21T03:11:18;6.88;;;4.45;;
16593;SDS011;8410;52.532;13.336;2022-08-21T03:13:46;6.07;;;4.53;;
16593;SDS011;8410;52.532;13.336;2022-08-21T03:16:14;8.07;;;4.93;;
16593;SDS011;8410;52.532;13.336;2022-08-21T03:18:42;6.18;;;4.00;;
16593;SDS011;8410;52.532;13.336;2022-08-21T03:21:10;5.00;;;3.80;;
16593;SDS011;8410;52.532;13.336;2022-08-21T03:23:39;6.00;;;3.50;;
16593;SDS011;8410;52.532;13.336;2022-08-21T03:26:09;7.57;;;4.30;;
16593;SDS011;8410;52.532;13.336;2022-08-21T03:28:39;6.50;;;3.80;;
16593;SDS011;8410;52.532;13.336;2022-08-21T03:31:07;9.17;;;3.60;;
16593;SDS011;8410;52.532;13.336;2022-08-21T03:33:34;6.70;;;3.78;;
16593;SDS011;8410;52.532;13.336;2022-08-21T03:36:04;4.93;;;3.85;;
16593;SDS011;8410;52.532;13.336;2022-08-21T03:38:35;6.75;;;4.40;;
16593;SDS011;8410;52.532;13.336;2022-08-21T03:41:05;7.50;;;3.80;;
16593;SDS011;8410;52.532;13.336;2022-08-21T03:43:34;6.78;;;4.03;;
16593;SDS011;8410;52.532;13.336;2022-08-21T03:46:04;5.85;;;3.80;;
16593;SDS011;8410;52.532;13.336;2022-08-21T03:48:34;7.70;;;3.80;;
16593;SDS011;8410;52.532;13.336;2022-08-21T03:51:04;5.60;;;3.50;;
16593;SDS011;8410;52.532;13.336;2022-08-21T03:53:33;6.20;;;3.50;;
16593;SDS011;8410;52.532;13.336;2022-08-21T03:56:02;7.10;;;3.73;;
16593;SDS011;8410;52.532;13.336;2022-08-21T03:58:32;5.55;;;3.65;;
16593;SDS011;8410;52.532;13.336;2022-08-21T04:01:00;5.17;;;3.90;;
16593;SDS011;8410;52.532;13.336;2022-08-21T04:03:33;7.13;;;4.03;;
16593;SDS011;8410;52.532;13.336;2022-08-21T04:06:03;7.28;;;4.03;;
16593;SDS011;8410;52.532;13.336;2022-08-21T04:08:32;7.38;;;3.67;;
16593;SDS011;8410;52.532;13.336;2022-08-21T04:11:00;7.22;;;3.90;;
16593;SDS011;8410;52.532;13.336;2022-08-21T04:13:29;7.90;;;3.87;;
16593;SDS011;8410;52.532;13.336;2022-08-21T04:15:57;6.80;;;3.83;;
16593;SDS011;8410;52.532;13.336;2022-08-21T04:18:26;7.13;;;3.60;;
16593;SDS011;8410;52.532;13.336;2022-08-21T04:20:56;7.33;;;4.00;;
16593;SDS011;8410;52.532;13.336;2022-08-21T04:23:27;6.57;;;3.53;;
16593;SDS011;8410;52.532;13.336;2022-08-21T04:25:56;6.10;;;3.50;;
16593;SDS011;8410;52.532;13.336;2022-08-21T04:28:25;8.25;;;3.95;;
16593;SDS011;8410;52.532;13.336;2022-08-21T04:30:56;5.30;;;3.20;;
16593;SDS011;8410;52.532;13.336;2022-08-21T04:33:25;6.43;;;3.20;;
16593;SDS011;8410;52.532;13.336;2022-08-21T04:35:55;6.38;;;3.00;;
16593;SDS011;8410;52.532;13.336;2022-08-21T04:38:23;6.78;;;3.25;;
16593;SDS011;8410;52.532;13.336;2022-08-21T04:40:51;5.33;;;3.17;;
16593;SDS011;8410;52.532;13.336;2022-08-21T04:43:19;5.97;;;3.00;;
16593;SDS011;8410;52.532;13.336;2022-08-21T04:45:49;6.90;;;3.17;;
16593;SDS011;8410;52.532;13.336;2022-08-21T04:48:19;5.00;;;3.00;;
16593;SDS011;8410;52.532;13.336;2022-08-21T04:50:52;4.00;;;2.80;;
16593;SDS011;8410;52.532;13.336;2022-08-21T04:53:30;6.10;;;3.10;;
16593;SDS011;8410;52.532;13.336;2022-08-21T04:56:05;6.65;;;3.28;;
16593;SDS011;8410;52.532;13.336;2022-08-21T04:58:39;6.43;;;3.08;;
16593;SDS011;8410;52.532;13.336;2022-08-21T05:01:11;6.80;;;3.13;;
16593;SDS011;8410;52.532;13.336;2022-08-21T05:03:44;6.50;;;3.20;;
16593;SDS011;8410;52.532;13.336;2022-08-21T05:06:17;6.50;;;2.93;;
16593;SDS011;8410;52.532;13.336;2022-08-21T05:08:47;4.67;;;3.00;;
16593;SDS011;8410;52.532;13.336;2022-08-21T05:11:27;6.93;;;2.90;;
16593;SDS011;8410;52.532;13.336;2022-08-21T05:13:57;4.50;;;2.93;;
16593;SDS011;8410;52.532;13.336;2022-08-21T05:16:25;7.33;;;2.97;;
16593;SDS011;8410;52.532;13.336;2022-08-21T05:19:03;6.80;;;3.00;;
16593;SDS011;8410;52.532;13.336;2022-08-21T05:21:33;6.07;;;3.53;;
16593;SDS011;8410;52.532;13.336;2022-08-21T05:24:04;6.03;;;3.70;;
16593;SDS011;8410;52.532;13.336;2022-08-21T05:26:32;6.13;;;3.15;;
16593;SDS011;8410;52.532;13.336;2022-08-21T05:29:12;7.27;;;3.30;;
16593;SDS011;8410;52.532;13.336;2022-08-21T05:31:41;6.47;;;3.30;;
16593;SDS011;8410;52.532;13.336;2022-08-21T05:34:09;8.95;;;3.35;;
16593;SDS011;8410;52.532;13.336;2022-08-21T05:36:42;8.80;;;3.37;;
16593;SDS011;8410;52.532;13.336;2022-08-21T05:39:11;7.40;;;3.67;;
16593;SDS011;8410;52.532;13.336;2022-08-21T05:41:39;7.97;;;3.10;;
16593;SDS011;8410;52.532;13.336;2022-08-21T05:44:08;4.10;;;2.97;;
16593;SDS011;8410;52.532;13.336;2022-08-21T05:46:36;6.70;;;3.17;;
16593;SDS011;8410;52.532;13.336;2022-08-21T05:49:05;4.07;;;2.60;;
16593;SDS011;8410;52.532;13.336;2022-08-21T05:51:32;7.50;;;3.30;;
16593;SDS011;8410;52.532;13.336;2022-08-21T05:54:02;5.87;;;3.53;;
16593;SDS011;8410;52.532;13.336;2022-08-21T05:56:30;5.00;;;2.93;;
16593;SDS011;8410;52.532;13.336;2022-08-21T05:58:59;6.73;;;3.07;;
16593;SDS011;8410;52.532;13.336;2022-08-21T06:01:27;7.80;;;3.20;;
16593;SDS011;8410;52.532;13.336;2022-08-21T06:03:56;8.10;;;2.83;;
16593;SDS011;8410;52.532;13.336;2022-08-21T06:06:26;4.97;;;2.60;;
16593;SDS011;8410;52.532;13.336;2022-08-21T06:08:54;4.90;;;2.70;;
16593;SDS011;8410;52.532;13.336;2022-08-21T06:11:23;5.18;;;2.83;;
16593;SDS011;8410;52.532;13.336;2022-08-21T06:13:54;8.45;;;3.33;;
16593;SDS011;8410;52.532;13.336;2022-08-21T06:16:22;7.38;;;3.20;;
16593;SDS011;8410;52.532;13.336;2022-08-21T06:18:50;12.13;;;5.07;;
16593;SDS011;8410;52.532;13.336;2022-08-21T06:21:19;6.90;;;2.75;;
16593;SDS011;8410;52.532;13.336;2022-08-21T06:23:47;5.32;;;3.00;;
16593;SDS011;8410;52.532;13.336;2022-08-21T06:26:14;6.70;;;3.00;;
16593;SDS011;8410;52.532;13.336;2022-08-21T06:28:44;6.20;;;2.75;;
16593;SDS011;8410;52.532;13.336;2022-08-21T06:31:14;5.60;;;2.75;;
16593;SDS011;8410;52.532;13.336;2022-08-21T06:33:45;8.45;;;3.05;;
16593;SDS011;8410;52.532;13.336;2022-08-21T06:36:13;4.65;;;2.50;;
16593;SDS011;8410;52.532;13.336;2022-08-21T06:38:42;8.63;;;2.83;;
16593;SDS011;8410;52.532;13.336;2022-08-21T06:41:17;6.47;;;3.27;;
16593;SDS011;8410;52.532;13.336;2022-08-21T06:43:51;7.05;;;3.50;;
16593;SDS011;8410;52.532;13.336;2022-08-21T06:46:19;6.80;;;2.83;;
16593;SDS011;8410;52.532;13.336;2022-08-21T06:48:47;6.32;;;3.10;;
16593;SDS011;8410;52.532;13.336;2022-08-21T06:51:15;9.65;;;3.30;;
16593;SDS011;8410;52.532;13.336;2022-08-21T06:53:43;7.22;;;3.15;;
16593;SDS011;8410;52.532;13.336;2022-08-21T06:56:11;8.07;;;3.83;;
16593;SDS011;8410;52.532;13.336;2022-08-21T06:58:39;4.18;;;3.33;;
16593;SDS011;8410;52.532;13.336;2022-08-21T07:01:09;8.50;;;3.70;;
16593;SDS011;8410;52.532;13.336;2022-08-21T07:03:37;7.07;;;3.88;;
16593;SDS011;8410;52.532;13.336;2022-08-21T07:06:07;8.30;;;3.92;;
16593;SDS011;8410;52.532;13.336;2022-08-21T07:08:37;7.97;;;3.55;;
16593;SDS011;8410;52.532;13.336;2022-08-21T07:11:07;7.75;;;3.50;;
16593;SDS011;8410;52.532;13.336;2022-08-21T07:13:41;10.57;;;4.05;;
16593;SDS011;8410;52.532;13.336;2022-08-21T07:16:11;9.57;;;4.25;;
16593;SDS011;8410;52.532;13.336;2022-08-21T07:18:39;7.50;;;3.47;;
16593;SDS011;8410;52.532;13.336;2022-08-21T07:21:08;7.78;;;3.95;;
16593;SDS011;8410;52.532;13.336;2022-08-21T07:23:37;8.07;;;3.75;;
16593;SDS011;8410;52.532;13.336;2022-08-21T07:26:09;10.50;;;3.78;;
16593;SDS011;8410;52.532;13.336;2022-08-21T07:28:37;9.43;;;3.60;;
16593;SDS011;8410;52.532;13.336;2022-08-21T07:31:05;6.40;;;3.30;;
16593;SDS011;8410;52.532;13.336;2022-08-21T07:33:35;10.52;;;3.42;;
16593;SDS011;8410;52.532;13.336;2022-08-21T07:36:03;10.65;;;4.32;;
16593;SDS011;8410;52.532;13.336;2022-08-21T07:38:32;6.50;;;3.60;;
16593;SDS011;8410;52.532;13.336;2022-08-21T07:41:00;9.32;;;4.25;;
16593;SDS011;8410;52.532;13.336;2022-08-21T07:43:29;8.43;;;3.20;;
16593;SDS011;8410;52.532;13.336;2022-08-21T07:45:57;9.07;;;3.75;;
16593;SDS011;8410;52.532;13.336;2022-08-21T07:48:25;10.15;;;3.70;;
16593;SDS011;8410;52.532;13.336;2022-08-21T07:50:54;7.90;;;3.95;;
16593;SDS011;8410;52.532;13.336;2022-08-21T07:53:22;6.68;;;3.45;;
16593;SDS011;8410;52.532;13.336;2022-08-21T07:55:50;8.35;;;3.80;;
16593;SDS011;8410;52.532;13.336;2022-08-21T07:58:18;5.47;;;3.35;;
16593;SDS011;8410;52.532;13.336;2022-08-21T08:00:46;6.63;;;3.42;;
16593;SDS011;8410;52.532;13.336;2022-08-21T08:03:14;8.57;;;3.20;;
16593;SDS011;8410;52.532;13.336;2022-08-21T08:05:55;7.63;;;3.70;;
16593;SDS011;8410;52.532;13.336;2022-08-21T08:08:25;11.35;;;4.53;;
16593;SDS011;8410;52.532;13.336;2022-08-21T08:10:53;7.03;;;3.72;;
16593;SDS011;8410;52.532;13.336;2022-08-21T08:13:25;7.07;;;3.38;;
16593;SDS011;8410;52.532;13.336;2022-08-21T08:15:53;9.32;;;3.97;;
16593;SDS011;8410;52.532;13.336;2022-08-21T08:18:21;8.45;;;3.78;;
16593;SDS011;8410;52.532;13.336;2022-08-21T08:20:49;7.72;;;3.55;;
16593;SDS011;8410;52.532;13.336;2022-08-21T08:23:18;9.30;;;3.88;;
16593;SDS011;8410;52.532;13.336;2022-08-21T08:25:46;7.72;;;3.83;;
16593;SDS011;8410;52.532;13.336;2022-08-21T08:28:14;7.82;;;3.38;;
16593;SDS011;8410;52.532;13.336;2022-08-21T08:30:43;8.93;;;3.53;;
16593;SDS011;8410;52.532;13.336;2022-08-21T08:33:12;6.22;;;3.40;;
16593;SDS011;8410;52.532;13.336;2022-08-21T08:35:41;5.53;;;2.25;;
16593;SDS011;8410;52.532;13.336;2022-08-21T08:38:14;7.65;;;2.20;;
16593;SDS011;8410;52.532;13.336;2022-08-21T08:40:50;4.60;;;2.00;;
16593;SDS011;8410;52.532;13.336;2022-08-21T08:43:28;5.07;;;2.25;;
16593;SDS011;8410;52.532;13.336;2022-08-21T08:45:59;7.38;;;2.40;;
16593;SDS011;8410;52.532;13.336;2022-08-21T08:48:39;5.72;;;2.00;;
16593;SDS011;8410;52.532;13.336;2022-08-21T08:51:19;15.77;;;2.72;;
16593;SDS011;8410;52.532;13.336;2022-08-21T08:53:55;8.75;;;2.00;;
16593;SDS011;8410;52.532;13.336;2022-08-21T08:56:31;5.05;;;1.88;;
16593;SDS011;8410;52.532;13.336;2022-08-21T08:59:02;4.10;;;1.80;;
16593;SDS011;8410;52.532;13.336;2022-08-21T09:01:40;6.72;;;2.03;;
16593;SDS011;8410;52.532;13.336;2022-08-21T09:04:09;3.67;;;1.65;;
16593;SDS011;8410;52.532;13.336;2022-08-21T09:06:43;4.55;;;1.77;;
16593;SDS011;8410;52.532;13.336;2022-08-21T09:09:44;2.78;;;1.50;;
16593;SDS011;8410;52.532;13.336;2022-08-21T09:12:36;5.05;;;2.03;;
16593;SDS011;8410;52.532;13.336;2022-08-21T09:15:20;8.63;;;2.03;;
16593;SDS011;8410;52.532;13.336;2022-08-21T09:18:02;3.42;;;1.80;;
16593;SDS011;8410;52.532;13.336;2022-08-21T09:20:47;3.97;;;1.95;;
16593;SDS011;8410;52.532;13.336;2022-08-21T09:23:31;4.75;;;2.00;;
16593;SDS011;8410;52.532;13.336;2022-08-21T09:26:11;3.75;;;1.65;;
16593;SDS011;8410;52.532;13.336;2022-08-21T09:28:44;5.28;;;1.90;;
16593;SDS011;8410;52.532;13.336;2022-08-21T09:31:21;8.20;;;2.13;;
16593;SDS011;8410;52.532;13.336;2022-08-21T09:33:56;3.60;;;1.67;;
16593;SDS011;8410;52.532;13.336;2022-08-21T09:36:31;3.80;;;1.52;;
16593;SDS011;8410;52.532;13.336;2022-08-21T09:39:08;5.78;;;1.80;;
16593;SDS011;8410;52.532;13.336;2022-08-21T09:41:39;3.47;;;1.95;;
16593;SDS011;8410;52.532;13.336;2022-08-21T09:44:09;6.28;;;1.90;;
16593;SDS011;8410;52.532;13.336;2022-08-21T09:46:37;4.15;;;1.92;;
16593;SDS011;8410;52.532;13.336;2022-08-21T09:49:05;5.00;;;2.00;;
16593;SDS011;8410;52.532;13.336;2022-08-21T09:51:40;6.65;;;2.15;;
16593;SDS011;8410;52.532;13.336;2022-08-21T09:54:20;4.00;;;1.70;;
16593;SDS011;8410;52.532;13.336;2022-08-21T09:56:57;4.70;;;1.88;;
16593;SDS011;8410;52.532;13.336;2022-08-21T09:59:46;4.97;;;2.08;;
16593;SDS011;8410;52.532;13.336;2022-08-21T10:02:22;5.38;;;1.88;;
16593;SDS011;8410;52.532;13.336;2022-08-21T10:04:56;4.15;;;1.95;;
16593;SDS011;8410;52.532;13.336;2022-08-21T10:07:28;4.63;;;2.15;;
16593;SDS011;8410;52.532;13.336;2022-08-21T10:10:00;4.07;;;1.90;;
16593;SDS011;8410;52.532;13.336;2022-08-21T10:12:35;5.47;;;1.85;;
16593;SDS011;8410;52.532;13.336;2022-08-21T10:15:20;4.45;;;1.95;;
16593;SDS011;8410;52.532;13.336;2022-08-21T10:18:01;4.75;;;2.00;;
16593;SDS011;8410;52.532;13.336;2022-08-21T10:20:40;8.82;;;4.20;;
16593;SDS011;8410;52.532;13.336;2022-08-21T10:23:21;3.75;;;2.10;;
16593;SDS011;8410;52.532;13.336;2022-08-21T10:26:11;4.78;;;2.60;;
16593;SDS011;8410;52.532;13.336;2022-08-21T10:29:01;4.43;;;2.75;;
16593;SDS011;8410;52.532;13.336;2022-08-21T10:31:42;4.60;;;1.95;;
16593;SDS011;8410;52.532;13.336;2022-08-21T10:34:23;4.07;;;2.33;;
16593;SDS011;8410;52.532;13.336;2022-08-21T10:37:13;6.03;;;2.20;;
16593;SDS011;8410;52.532;13.336;2022-08-21T10:39:56;4.78;;;2.38;;
16593;SDS011;8410;52.532;13.336;2022-08-21T10:45:43;4.90;;;1.67;;
16593;SDS011;8410;52.532;13.336;2022-08-21T10:48:32;3.35;;;1.75;;
16593;SDS011;8410;52.532;13.336;2022-08-21T10:51:10;2.85;;;1.77;;
16593;SDS011;8410;52.532;13.336;2022-08-21T10:53:55;3.78;;;2.13;;
16593;SDS011;8410;52.532;13.336;2022-08-21T10:56:33;7.93;;;2.92;;
16593;SDS011;8410;52.532;13.336;2022-08-21T10:59:15;6.88;;;1.83;;
16593;SDS011;8410;52.532;13.336;2022-08-21T11:02:01;3.67;;;1.65;;
16593;SDS011;8410;52.532;13.336;2022-08-21T11:04:45;4.00;;;1.70;;
16593;SDS011;8410;52.532;13.336;2022-08-21T11:07:31;3.53;;;1.70;;
16593;SDS011;8410;52.532;13.336;2022-08-21T11:10:04;8.00;;;1.90;;
16593;SDS011;8410;52.532;13.336;2022-08-21T11:12:41;2.75;;;1.70;;
16593;SDS011;8410;52.532;13.336;2022-08-21T11:15:24;2.83;;;1.80;;
16593;SDS011;8410;52.532;13.336;2022-08-21T11:18:02;2.00;;;1.50;;
16593;SDS011;8410;52.532;13.336;2022-08-21T11:20:52;3.22;;;1.50;;
16593;SDS011;8410;52.532;13.336;2022-08-21T11:23:33;2.08;;;1.40;;
16593;SDS011;8410;52.532;13.336;2022-08-21T11:26:13;5.68;;;4.25;;
16593;SDS011;8410;52.532;13.336;2022-08-21T11:28:51;2.80;;;1.42;;
16593;SDS011;8410;52.532;13.336;2022-08-21T11:31:32;5.05;;;1.52;;
16593;SDS011;8410;52.532;13.336;2022-08-21T11:34:18;5.13;;;1.60;;
16593;SDS011;8410;52.532;13.336;2022-08-21T11:37:04;2.28;;;1.60;;
16593;SDS011;8410;52.532;13.336;2022-08-21T11:39:45;3.13;;;1.65;;
16593;SDS011;8410;52.532;13.336;2022-08-21T11:42:30;3.72;;;1.80;;
16593;SDS011;8410;52.532;13.336;2022-08-21T11:45:14;2.58;;;1.48;;
16593;SDS011;8410;52.532;13.336;2022-08-21T11:47:56;2.78;;;1.52;;
16593;SDS011;8410;52.532;13.336;2022-08-21T11:50:39;3.70;;;1.55;;
16593;SDS011;8410;52.532;13.336;2022-08-21T11:53:12;2.50;;;1.30;;
16593;SDS011;8410;52.532;13.336;2022-08-21T11:55:48;3.10;;;1.40;;
16593;SDS011;8410;52.532;13.336;2022-08-21T11:58:25;2.10;;;1.65;;
16593;SDS011;8410;52.532;13.336;2022-08-21T12:01:04;2.17;;;1.65;;
16593;SDS011;8410;52.532;13.336;2022-08-21T12:03:37;1.85;;;1.40;;
16593;SDS011;8410;52.532;13.336;2022-08-21T12:06:11;4.25;;;1.25;;
16593;SDS011;8410;52.532;13.336;2022-08-21T12:08:58;4.32;;;1.45;;
16593;SDS011;8410;52.532;13.336;2022-08-21T12:11:29;2.13;;;1.25;;
16593;SDS011;8410;52.532;13.336;2022-08-21T12:13:59;2.95;;;1.50;;
16593;SDS011;8410;52.532;13.336;2022-08-21T12:16:41;3.70;;;1.20;;
16593;SDS011;8410;52.532;13.336;2022-08-21T12:19:13;2.30;;;1.40;;
16593;SDS011;8410;52.532;13.336;2022-08-21T12:21:58;4.25;;;1.60;;
16593;SDS011;8410;52.532;13.336;2022-08-21T12:24:39;3.15;;;1.65;;
16593;SDS011;8410;52.532;13.336;2022-08-21T12:27:14;4.53;;;1.48;;
16593;SDS011;8410;52.532;13.336;2022-08-21T12:29:54;2.90;;;1.50;;
16593;SDS011;8410;52.532;13.336;2022-08-21T12:32:28;4.03;;;1.50;;
16593;SDS011;8410;52.532;13.336;2022-08-21T12:35:10;2.53;;;1.20;;
16593;SDS011;8410;52.532;13.336;2022-08-21T12:37:52;2.33;;;1.60;;
16593;SDS011;8410;52.532;13.336;2022-08-21T12:40:31;2.92;;;1.30;;
16593;SDS011;8410;52.532;13.336;2022-08-21T12:43:11;12.07;;;1.90;;
16593;SDS011;8410;52.532;13.336;2022-08-21T12:45:46;3.03;;;1.48;;
16593;SDS011;8410;52.532;13.336;2022-08-21T12:48:20;3.17;;;1.60;;
16593;SDS011;8410;52.532;13.336;2022-08-21T12:50:54;3.00;;;1.75;;
16593;SDS011;8410;52.532;13.336;2022-08-21T12:53:28;4.30;;;1.70;;
16593;SDS011;8410;52.532;13.336;2022-08-21T12:56:03;2.03;;;1.50;;
16593;SDS011;8410;52.532;13.336;2022-08-21T12:58:39;3.40;;;1.60;;
16593;SDS011;8410;52.532;13.336;2022-08-21T13:01:13;4.47;;;1.48;;
16593;SDS011;8410;52.532;13.336;2022-08-21T13:03:49;2.85;;;1.40;;
16593;SDS011;8410;52.532;13.336;2022-08-21T13:06:31;2.97;;;1.50;;
16593;SDS011;8410;52.532;13.336;2022-08-21T13:09:07;4.28;;;1.65;;
16593;SDS011;8410;52.532;13.336;2022-08-21T13:11:41;3.08;;;1.50;;
16593;SDS011;8410;52.532;13.336;2022-08-21T13:14:16;6.82;;;1.80;;
16593;SDS011;8410;52.532;13.336;2022-08-21T13:16:53;4.43;;;1.80;;
16593;SDS011;8410;52.532;13.336;2022-08-21T13:19:24;3.42;;;1.98;;
16593;SDS011;8410;52.532;13.336;2022-08-21T13:21:55;4.72;;;2.30;;
16593;SDS011;8410;52.532;13.336;2022-08-21T13:24:24;2.72;;;1.40;;
16593;SDS011;8410;52.532;13.336;2022-08-21T13:27:19;6.47;;;2.00;;
16593;SDS011;8410;52.532;13.336;2022-08-21T13:30:03;4.03;;;1.90;;
16593;SDS011;8410;52.532;13.336;2022-08-21T13:32:39;4.20;;;1.65;;
16593;SDS011;8410;52.532;13.336;2022-08-21T13:35:15;3.42;;;2.42;;
16593;SDS011;8410;52.532;13.336;2022-08-21T13:37:46;4.50;;;1.85;;
16593;SDS011;8410;52.532;13.336;2022-08-21T13:40:19;3.55;;;1.80;;
16593;SDS011;8410;52.532;13.336;2022-08-21T13:42:53;4.63;;;2.22;;
16593;SDS011;8410;52.532;13.336;2022-08-21T13:45:24;5.47;;;1.75;;
16593;SDS011;8410;52.532;13.336;2022-08-21T13:47:57;3.80;;;1.75;;
16593;SDS011;8410;52.532;13.336;2022-08-21T13:50:31;3.55;;;1.80;;
16593;SDS011;8410;52.532;13.336;2022-08-21T13:53:05;2.70;;;1.60;;
16593;SDS011;8410;52.532;13.336;2022-08-21T13:55:46;4.55;;;1.83;;
16593;SDS011;8410;52.532;13.336;2022-08-21T13:58:25;3.45;;;1.88;;
16593;SDS011;8410;52.532;13.336;2022-08-21T14:00:55;4.43;;;2.13;;
16593;SDS011;8410;52.532;13.336;2022-08-21T14:03:31;6.28;;;2.28;;
16593;SDS011;8410;52.532;13.336;2022-08-21T14:06:10;4.03;;;1.90;;
16593;SDS011;8410;52.532;13.336;2022-08-21T14:08:41;3.75;;;2.03;;
16593;SDS011;8410;52.532;13.336;2022-08-21T14:11:16;6.47;;;2.60;;
16593;SDS011;8410;52.532;13.336;2022-08-21T14:13:48;8.20;;;3.53;;
16593;SDS011;8410;52.532;13.336;2022-08-21T14:16:24;4.97;;;2.10;;
16593;SDS011;8410;52.532;13.336;2022-08-21T14:19:08;4.07;;;1.92;;
16593;SDS011;8410;52.532;13.336;2022-08-21T14:21:44;3.58;;;1.80;;
16593;SDS011;8410;52.532;13.336;2022-08-21T14:24:13;3.65;;;1.70;;
16593;SDS011;8410;52.532;13.336;2022-08-21T14:26:56;6.07;;;2.30;;
16593;SDS011;8410;52.532;13.336;2022-08-21T14:29:34;4.45;;;1.98;;
16593;SDS011;8410;52.532;13.336;2022-08-21T14:32:11;4.45;;;2.10;;
16593;SDS011;8410;52.532;13.336;2022-08-21T14:34:50;7.15;;;2.35;;
16593;SDS011;8410;52.532;13.336;2022-08-21T14:37:20;5.35;;;2.33;;
16593;SDS011;8410;52.532;13.336;2022-08-21T14:39:48;3.88;;;2.20;;
16593;SDS011;8410;52.532;13.336;2022-08-21T14:42:16;4.78;;;2.20;;
16593;SDS011;8410;52.532;13.336;2022-08-21T14:44:46;7.18;;;2.40;;
16593;SDS011;8410;52.532;13.336;2022-08-21T14:47:14;5.25;;;2.20;;
16593;SDS011;8410;52.532;13.336;2022-08-21T14:49:42;8.43;;;2.92;;
16593;SDS011;8410;52.532;13.336;2022-08-21T14:52:10;3.95;;;2.00;;
16593;SDS011;8410;52.532;13.336;2022-08-21T14:54:38;6.45;;;4.63;;
16593;SDS011;8410;52.532;13.336;2022-08-21T14:57:07;6.20;;;2.58;;
16593;SDS011;8410;52.532;13.336;2022-08-21T14:59:38;5.55;;;2.10;;
16593;SDS011;8410;52.532;13.336;2022-08-21T15:02:08;8.55;;;2.28;;
16593;SDS011;8410;52.532;13.336;2022-08-21T15:04:36;5.43;;;2.30;;
16593;SDS011;8410;52.532;13.336;2022-08-21T15:07:04;4.38;;;2.00;;
16593;SDS011;8410;52.532;13.336;2022-08-21T15:09:32;5.15;;;2.45;;
16593;SDS011;8410;52.532;13.336;2022-08-21T15:12:00;3.85;;;1.88;;
16593;SDS011;8410;52.532;13.336;2022-08-21T15:14:32;5.03;;;2.17;;
16593;SDS011;8410;52.532;13.336;2022-08-21T15:17:07;3.67;;;1.90;;
16593;SDS011;8410;52.532;13.336;2022-08-21T15:19:38;5.80;;;2.15;;
16593;SDS011;8410;52.532;13.336;2022-08-21T15:22:06;4.38;;;2.17;;